»·PEaware :: N1728X KPSP-KTOA

N1728X :: KPSP-KTOA

FLIGHT INFORMATION

Flight Status: Arrived
Operator: Privately registered:
United States
More flights under this callsign
Pilot: Leonard B. (9579)
Aircraft: CESSNA 172 SKYHAWK
(C172)
More flights by this aircraft type
Origin: KPSP Palm Springs Intl
United States
Destination: KTOA Zamperini
United States
More flights between these airports :: More routes between these airports
Route: +CATH1 PSP V388 PDZ PDZ270/16 DOWDD V394 SLI
File this flight plan on PilotEdge
Remarks: TEC route PSPP8A
Altitude:
(Current/Filed)
10,000ft
Speed:
(Current/Filed)
110kts
Departed: 21-Jul-19 12:01 PM
Arrived: 21-Jul-19 01:13 PM
Distance/Time
Traveled:
92nm/1:12
Distance/Time
To Go:
Arrived

Flight Plot

Page will automatically refresh every two minutes.

Flight plan parsing failed; only flown route is shown


Map Options




Map Legend


Flown Route
Filed Route
Departure Airport
Arrival Airport
Navaid (VOR, NDB)
Fix

Horizontal Profiles

Position Reports

Time Latitude Longitude Heading Altitude Ground
Speed
21-Jul-19 10:41 33.825092 -116.509397 358 420ft 0kts
21-Jul-19 10:42 33.825092 -116.509397 358 420ft 0kts
21-Jul-19 10:43 33.825092 -116.509397 358 420ft 0kts
21-Jul-19 10:44 33.825092 -116.509397 358 420ft 0kts
21-Jul-19 10:45 33.825092 -116.509397 358 420ft 0kts
21-Jul-19 10:46 33.825092 -116.509397 358 420ft 0kts
21-Jul-19 10:47 33.825092 -116.509397 358 420ft 0kts
21-Jul-19 10:48 33.825092 -116.509397 358 420ft 0kts
21-Jul-19 10:49 33.825092 -116.509397 358 420ft 0kts
21-Jul-19 10:50 33.825092 -116.509397 358 420ft 0kts
21-Jul-19 10:51 33.825092 -116.509397 358 420ft 0kts
21-Jul-19 10:52 33.825092 -116.509397 358 420ft 0kts
21-Jul-19 10:53 33.825092 -116.509397 358 420ft 0kts
21-Jul-19 10:54 33.825092 -116.509397 358 420ft 0kts
21-Jul-19 10:55 33.825092 -116.509397 358 420ft 0kts
21-Jul-19 10:56 33.825092 -116.509397 358 420ft 0kts
21-Jul-19 10:56 33.825092 -116.509397 358 420ft 0kts
21-Jul-19 10:58 33.825092 -116.509397 358 420ft 0kts
21-Jul-19 10:59 33.825092 -116.509397 358 420ft 0kts
21-Jul-19 11:00 33.825092 -116.509397 358 420ft 0kts
21-Jul-19 11:00 33.825092 -116.509397 358 420ft 0kts
21-Jul-19 11:01 33.825092 -116.509397 358 420ft 0kts
21-Jul-19 11:03 33.825092 -116.509397 358 420ft 0kts
21-Jul-19 11:03 33.825092 -116.509397 358 420ft 0kts
21-Jul-19 11:04 33.825092 -116.509397 358 420ft 0kts
21-Jul-19 11:05 33.825092 -116.509397 358 420ft 0kts
21-Jul-19 11:06 33.825092 -116.509397 358 420ft 0kts
21-Jul-19 11:07 33.825092 -116.509397 358 420ft 0kts
21-Jul-19 11:08 33.825092 -116.509397 358 420ft 0kts
21-Jul-19 11:09 33.825092 -116.509397 358 420ft 0kts
21-Jul-19 11:10 33.825092 -116.509397 358 420ft 0kts
21-Jul-19 11:11 33.825092 -116.509397 358 420ft 0kts
21-Jul-19 11:12 33.825092 -116.509397 358 420ft 0kts
21-Jul-19 11:13 33.825092 -116.509397 358 420ft 0kts
21-Jul-19 11:14 33.825092 -116.509397 358 420ft 0kts
21-Jul-19 11:15 33.825092 -116.509397 358 420ft 0kts
21-Jul-19 11:16 33.825092 -116.509397 358 420ft 0kts
21-Jul-19 11:17 33.825092 -116.509397 358 420ft 0kts
21-Jul-19 11:18 33.825092 -116.509397 358 420ft 0kts
21-Jul-19 11:19 33.825092 -116.509397 358 420ft 0kts
21-Jul-19 11:20 33.825092 -116.509397 358 420ft 0kts
21-Jul-19 11:21 33.825092 -116.509397 358 420ft 0kts
21-Jul-19 11:22 33.825092 -116.509397 358 420ft 0kts
21-Jul-19 11:23 33.825092 -116.509397 358 420ft 0kts
21-Jul-19 11:24 33.825092 -116.509397 358 420ft 0kts
21-Jul-19 11:25 33.825092 -116.509397 358 420ft 0kts
21-Jul-19 11:26 33.825092 -116.509397 358 420ft 0kts
21-Jul-19 11:27 33.825092 -116.509397 358 420ft 0kts
21-Jul-19 11:28 33.825092 -116.509397 358 420ft 0kts
21-Jul-19 11:29 33.825092 -116.509397 358 420ft 0kts
21-Jul-19 11:30 33.825092 -116.509397 358 420ft 0kts
21-Jul-19 11:31 33.825092 -116.509397 358 420ft 0kts
21-Jul-19 11:32 33.825092 -116.509397 358 420ft 0kts
21-Jul-19 11:33 33.825092 -116.509397 358 420ft 0kts
21-Jul-19 11:34 33.825092 -116.509397 358 420ft 0kts
21-Jul-19 11:35 33.825092 -116.509397 358 420ft 0kts
21-Jul-19 11:36 33.825092 -116.509397 358 420ft 0kts
21-Jul-19 11:37 33.825092 -116.509397 358 420ft 0kts
21-Jul-19 11:38 33.825092 -116.509397 358 420ft 0kts
21-Jul-19 11:39 33.825092 -116.509397 358 420ft 0kts
21-Jul-19 11:40 33.825092 -116.509397 358 420ft 0kts
21-Jul-19 11:41 33.825092 -116.509397 358 420ft 0kts
21-Jul-19 11:42 33.825092 -116.509397 358 420ft 0kts
21-Jul-19 11:43 33.825092 -116.509397 358 420ft 0kts
21-Jul-19 11:44 33.825092 -116.509397 358 420ft 0kts
21-Jul-19 11:45 33.825092 -116.509397 358 420ft 0kts
21-Jul-19 11:46 33.825092 -116.509397 358 420ft 0kts
21-Jul-19 11:47 33.825092 -116.509397 358 420ft 0kts
21-Jul-19 11:48 33.825092 -116.509397 358 420ft 0kts
21-Jul-19 11:49 33.825092 -116.509397 358 420ft 0kts
21-Jul-19 11:50 33.825092 -116.509397 358 420ft 0kts
21-Jul-19 11:51 33.826862 -116.509086 358 423ft 0kts
21-Jul-19 11:52 33.830896 -116.510907 323 432ft 20kts
21-Jul-19 11:53 33.836195 -116.515602 323 458ft 20kts
21-Jul-19 11:54 33.839615 -116.517744 31 470ft 0kts
21-Jul-19 11:55 33.839615 -116.517744 31 470ft 0kts
21-Jul-19 11:56 33.839615 -116.517744 31 470ft 0kts
21-Jul-19 11:57 33.839615 -116.517744 31 470ft 0kts
21-Jul-19 11:58 33.839615 -116.517744 31 470ft 0kts
21-Jul-19 11:59 33.839618 -116.517743 30 470ft 0kts
21-Jul-19 12:00 33.830747 -116.508420 143 786ft 76kts
21-Jul-19 12:01 33.822181 -116.485223 109 1641ft 85kts
21-Jul-19 12:02 33.817733 -116.459480 103 2411ft 87kts
21-Jul-19 12:03 33.816769 -116.431485 46 3138ft 99kts
21-Jul-19 12:04 33.834239 -116.410933 44 3863ft 97kts
21-Jul-19 12:05 33.850972 -116.392299 44 4249ft 116kts
21-Jul-19 12:06 33.852813 -116.360524 146 4771ft 101kts
21-Jul-19 12:07 33.826594 -116.367202 241 5450ft 95kts
21-Jul-19 12:08 33.837354 -116.394086 317 6085ft 98kts
21-Jul-19 12:09 33.857230 -116.415518 313 6782ft 94kts
21-Jul-19 12:10 33.869309 -116.440797 271 7420ft 90kts
21-Jul-19 12:11 33.871643 -116.471137 268 8032ft 91kts
21-Jul-19 12:12 33.873212 -116.501662 270 8639ft 91kts
21-Jul-19 12:13 33.877823 -116.531008 266 9239ft 86kts
21-Jul-19 12:14 33.878921 -116.558603 271 9815ft 78kts
21-Jul-19 12:15 33.882486 -116.587859 276 10003ft 107kts
21-Jul-19 12:16 33.888759 -116.625750 279 9996ft 119kts
21-Jul-19 12:17 33.891818 -116.663387 301 9994ft 120kts
21-Jul-19 12:18 33.910919 -116.695948 302 9992ft 117kts
21-Jul-19 12:19 33.929649 -116.727467 302 9992ft 114kts
21-Jul-19 12:20 33.945859 -116.759121 267 9993ft 106kts
21-Jul-19 12:21 33.945015 -116.793970 266 9993ft 102kts
21-Jul-19 12:22 33.945790 -116.826199 270 10067ft 92kts
21-Jul-19 12:23 33.948200 -116.856423 272 10066ft 89kts
21-Jul-19 12:24 33.945741 -116.884189 252 10067ft 82kts
21-Jul-19 12:25 33.944212 -116.911359 265 10054ft 82kts
21-Jul-19 12:26 33.947850 -116.940143 275 9943ft 101kts
21-Jul-19 12:27 33.946671 -116.977751 258 9478ft 120kts
21-Jul-19 12:28 33.942745 -117.019030 262 8983ft 125kts
21-Jul-19 12:29 33.940306 -117.061460 264 8480ft 129kts
21-Jul-19 12:30 33.938209 -117.105879 264 8009ft 137kts
21-Jul-19 12:31 33.936121 -117.151925 264 7508ft 129kts
21-Jul-19 12:32 33.934200 -117.194296 264 7018ft 127kts
21-Jul-19 12:33 33.932251 -117.236821 264 6517ft 127kts
21-Jul-19 12:34 33.930264 -117.279310 262 6071ft 123kts
21-Jul-19 12:35 33.928365 -117.318166 263 6064ft 114kts
21-Jul-19 12:36 33.926575 -117.356075 263 6066ft 116kts
21-Jul-19 12:37 33.924750 -117.394790 262 6070ft 116kts
21-Jul-19 12:38 33.923048 -117.430909 263 6063ft 116kts
21-Jul-19 12:39 33.921386 -117.465695 263 6072ft 117kts
21-Jul-19 12:40 33.919833 -117.498077 263 6065ft 117kts
21-Jul-19 12:41 33.919912 -117.534101 279 6071ft 119kts
21-Jul-19 12:42 33.928170 -117.573527 281 5735ft 133kts
21-Jul-19 12:43 33.939156 -117.623422 282 5164ft 132kts
21-Jul-19 12:44 33.947712 -117.661822 280 4635ft 112kts
21-Jul-19 12:45 33.955610 -117.697458 281 4137ft 110kts
21-Jul-19 12:46 33.962661 -117.729256 279 4072ft 93kts
21-Jul-19 12:47 33.970160 -117.763404 281 4068ft 117kts
21-Jul-19 12:48 33.978018 -117.798885 280 4067ft 120kts
21-Jul-19 12:49 33.978964 -117.835658 230 4069ft 114kts
21-Jul-19 12:51 33.972728 -117.869326 209 4074ft 111kts
21-Jul-19 12:52 33.944485 -117.884848 202 4069ft 112kts
21-Jul-19 12:53 33.914633 -117.892227 185 4064ft 110kts
21-Jul-19 12:54 33.884530 -117.897842 189 4066ft 110kts
21-Jul-19 12:55 33.854463 -117.904406 190 4068ft 110kts
21-Jul-19 12:56 33.824710 -117.912750 220 4043ft 109kts
21-Jul-19 12:57 33.812185 -117.944680 247 4048ft 103kts
21-Jul-19 12:58 33.803379 -117.977445 249 4051ft 103kts
21-Jul-19 12:59 33.794749 -118.010557 248 4049ft 103kts
21-Jul-19 13:00 33.786206 -118.043521 248 4051ft 102kts
21-Jul-19 13:01 33.772012 -118.072700 230 4051ft 101kts
21-Jul-19 13:02 33.746783 -118.086332 192 3814ft 113kts
21-Jul-19 13:03 33.715592 -118.096284 221 3311ft 120kts
21-Jul-19 13:04 33.689032 -118.115400 216 3034ft 108kts
21-Jul-19 13:05 33.694765 -118.151072 285 2671ft 125kts
21-Jul-19 13:06 33.705037 -118.189686 300 2124ft 118kts
21-Jul-19 13:07 33.722065 -118.216262 305 2056ft 98kts
21-Jul-19 13:08 33.739769 -118.242865 305 2049ft 102kts
21-Jul-19 13:09 33.758483 -118.269828 302 1738ft 91kts
21-Jul-19 13:09 33.770121 -118.288623 305 1239ft 80kts
21-Jul-19 13:11 33.787253 -118.314336 306 627ft 84kts
21-Jul-19 13:12 33.800925 -118.334868 303 119ft 64kts
21-Jul-19 13:12 33.805701 -118.343237 288 93ft 21kts

Navigation Log

Ident Type
Flight plan parsing failed, navigation log unavailable